Time;durP1;ratioP1;P1;durP2;ratioP2;P2;SDS_P1;SDS_P2;PMS_P1;PMS_P2;Temp;Humidity;BMP_temperature;BMP_pressure;BME280_temperature;BME280_humidity;BME280_pressure;Samples;Min_cycle;Max_cycle;Signal;HPM_P1;HPM_P2
2021/08/08 00:01:28;;;;;;;6.95;2.30;;;;;;;24.05;40.52;99984.50;5090562;28;20105;-23
2021/08/08 00:03:54;;;;;;;3.58;2.13;;;;;;;24.33;40.05;99986.25;5109404;28;20445;-24
2021/08/08 00:06:19;;;;;;;6.68;2.35;;;;;;;24.20;40.26;99974.31;5108663;28;20027;-24
2021/08/08 00:08:45;;;;;;;5.10;2.30;;;;;;;24.41;39.39;99969.91;5108684;28;20463;-23
2021/08/08 00:11:10;;;;;;;4.80;2.47;;;;;;;24.21;39.32;99962.28;5108834;28;20060;-23
2021/08/08 00:13:36;;;;;;;25.10;3.50;;;;;;;24.31;40.39;99983.81;5108877;28;20050;-23
2021/08/08 00:16:02;;;;;;;12.88;2.63;;;;;;;24.11;40.18;99968.00;5108625;28;20254;-23
2021/08/08 00:18:27;;;;;;;7.55;2.60;;;;;;;23.86;40.56;99983.88;5108492;28;20056;-23
2021/08/08 00:20:53;;;;;;;20.70;3.35;;;;;;;23.75;41.06;99980.56;5108834;28;20483;-23
2021/08/08 00:23:18;;;;;;;12.07;2.85;;;;;;;23.32;41.93;99980.22;5108492;28;20031;-23
2021/08/08 00:25:45;;;;;;;5.47;2.22;;;;;;;23.22;42.36;99971.16;5108258;28;20035;-23
2021/08/08 00:28:11;;;;;;;8.65;2.17;;;;;;;23.79;41.28;99978.06;5108225;28;20088;-23
2021/08/08 00:30:36;;;;;;;5.45;2.33;;;;;;;23.84;41.47;99976.03;5108281;28;20470;-23
2021/08/08 00:33:02;;;;;;;6.95;2.55;;;;;;;23.91;40.62;99966.63;5108747;28;20042;-23
2021/08/08 00:35:27;;;;;;;15.27;3.17;;;;;;;23.97;40.69;99984.44;5108291;28;20449;-23
2021/08/08 00:37:53;;;;;;;12.27;2.90;;;;;;;23.70;41.08;99964.38;5108254;28;20036;-23
2021/08/08 00:40:18;;;;;;;12.73;3.00;;;;;;;23.92;40.65;99977.19;5107913;28;20047;-23
2021/08/08 00:42:47;;;;;;;8.50;2.47;;;;;;;23.92;40.97;99979.91;5108231;28;20468;-23
2021/08/08 00:45:17;;;;;;;29.42;3.70;;;;;;;22.96;42.57;99972.78;5107816;28;20156;-23
2021/08/08 00:47:43;;;;;;;23.23;3.10;;;;;;;22.93;42.72;99979.63;5108038;28;20099;-23
2021/08/08 00:50:09;;;;;;;5.03;2.05;;;;;;;22.42;44.42;99988.78;5107820;28;20055;-23
2021/08/08 00:52:35;;;;;;;6.90;2.30;;;;;;;22.83;43.77;99986.09;5089683;28;20098;-23
2021/08/08 00:55:00;;;;;;;7.10;2.50;;;;;;;22.71;43.61;99993.94;5107925;28;20451;-23
2021/08/08 00:57:26;;;;;;;6.95;2.25;;;;;;;22.64;43.87;99993.56;5107579;28;20051;-23
2021/08/08 00:59:51;;;;;;;5.90;2.45;;;;;;;22.90;43.31;99990.31;5107768;28;20108;-24
2021/08/08 01:02:18;;;;;;;7.82;2.50;;;;;;;23.40;42.34;99982.22;5089728;28;20542;-27
2021/08/08 01:04:47;;;;;;;5.63;2.40;;;;;;;23.19;42.49;99985.38;5072968;28;20559;-24
2021/08/08 01:07:16;;;;;;;4.30;2.50;;;;;;;23.49;41.61;99974.91;5089479;28;20032;-23
2021/08/08 01:09:48;;;;;;;5.03;2.22;;;;;;;23.48;42.05;99989.66;5107723;28;20019;-23
2021/08/08 01:12:13;;;;;;;5.43;2.50;;;;;;;23.00;43.33;99973.78;5072891;28;20023;-23
2021/08/08 01:14:40;;;;;;;5.28;2.40;;;;;;;22.94;43.06;99980.44;5089462;28;20056;-23
2021/08/08 01:17:05;;;;;;;5.30;2.80;;;;;;;22.53;43.33;99973.09;5089525;28;20047;-24
2021/08/08 01:19:39;;;;;;;4.03;2.42;;;;;;;22.17;45.28;99990.00;5107486;28;20114;-23
2021/08/08 01:22:05;;;;;;;4.55;2.35;;;;;;;22.30;44.75;99986.53;5088693;28;20039;-23
2021/08/08 01:24:30;;;;;;;4.85;2.55;;;;;;;21.99;44.63;100006.06;5089503;28;20027;-23
2021/08/08 01:26:56;;;;;;;10.85;5.57;;;;;;;21.60;45.55;100004.47;5089256;28;20040;-23
2021/08/08 01:29:21;;;;;;;7.75;3.35;;;;;;;20.83;47.50;99989.19;5072367;28;20108;-24
2021/08/08 01:31:51;;;;;;;7.30;3.78;;;;;;;20.52;49.17;99990.59;5107453;28;20032;-23
2021/08/08 01:34:16;;;;;;;9.35;3.13;;;;;;;20.71;48.71;99994.19;5107074;28;20507;-23
2021/08/08 01:36:42;;;;;;;7.45;3.00;;;;;;;20.59;48.83;99981.03;5107504;28;20046;-23
2021/08/08 01:39:08;;;;;;;6.47;2.80;;;;;;;20.20;50.34;100000.09;5072381;28;20410;-23
2021/08/08 01:41:47;;;;;;;6.47;2.97;;;;;;;20.19;50.33;99998.50;5072185;28;20032;-23
2021/08/08 01:44:13;;;;;;;4.78;2.67;;;;;;;20.40;50.20;99990.97;5072332;28;20027;-23
2021/08/08 01:46:38;;;;;;;5.57;3.38;;;;;;;20.30;49.65;99997.28;5107230;28;20406;-23
2021/08/08 01:49:04;;;;;;;10.02;5.18;;;;;;;20.11;49.29;99974.75;5107161;28;20031;-23
2021/08/08 01:51:29;;;;;;;10.00;6.30;;;;;;;20.24;49.49;99996.53;5089171;28;20035;-23
2021/08/08 01:53:55;;;;;;;22.52;10.70;;;;;;;20.09;49.47;99993.97;5088930;28;20064;-23
2021/08/08 01:56:20;;;;;;;13.10;6.95;;;;;;;20.90;48.56;99983.41;5106962;28;20096;-22
2021/08/08 01:58:46;;;;;;;14.38;7.50;;;;;;;21.93;46.26;99996.38;5089022;28;20031;-22
2021/08/08 02:01:11;;;;;;;18.45;7.85;;;;;;;22.53;44.69;99997.53;5088888;28;20023;-22
2021/08/08 02:03:38;;;;;;;22.10;9.60;;;;;;;22.76;44.13;99993.84;5107036;28;20444;-22
2021/08/08 02:06:04;;;;;;;16.08;7.95;;;;;;;22.51;44.45;99975.31;5106847;28;20066;-22
2021/08/08 02:08:29;;;;;;;16.10;8.10;;;;;;;22.84;43.21;99998.59;5106890;28;20050;-22
2021/08/08 02:10:55;;;;;;;20.63;7.75;;;;;;;23.00;43.33;99998.25;5107506;28;20534;-22
2021/08/08 02:13:20;;;;;;;15.48;6.70;;;;;;;22.78;43.77;99999.78;5107276;28;20028;-22
2021/08/08 02:15:46;;;;;;;14.52;6.00;;;;;;;23.00;43.01;100000.97;5107337;28;20371;-22
2021/08/08 02:18:11;;;;;;;14.45;6.00;;;;;;;22.53;44.00;99989.41;5107096;28;20035;-22
2021/08/08 02:20:37;;;;;;;13.70;4.55;;;;;;;22.80;43.31;99985.88;5107095;28;20475;-22
2021/08/08 02:23:03;;;;;;;14.23;4.75;;;;;;;23.09;42.72;100004.63;5106828;28;20023;-22
2021/08/08 02:25:28;;;;;;;13.13;4.97;;;;;;;22.96;42.78;100006.22;5106846;28;20074;-22
2021/08/08 02:27:54;;;;;;;11.23;3.90;;;;;;;22.33;44.34;100013.13;5106930;28;20059;-22
2021/08/08 02:30:19;;;;;;;10.45;4.45;;;;;;;22.63;44.16;100002.78;5107079;28;20042;-22
2021/08/08 02:32:45;;;;;;;15.38;6.10;;;;;;;21.97;44.90;99988.44;5107082;28;20483;-22
2021/08/08 02:35:12;;;;;;;17.20;5.93;;;;;;;21.83;45.56;100012.81;5109409;28;20043;-22
2021/08/08 02:37:37;;;;;;;17.23;6.03;;;;;;;21.52;45.78;100018.72;5110458;28;20501;-22
2021/08/08 02:40:03;;;;;;;11.63;5.38;;;;;;;22.10;45.58;100027.59;5110217;28;20020;-22
2021/08/08 02:42:29;;;;;;;18.73;5.25;;;;;;;22.56;44.28;100018.72;5110417;28;20035;-22
2021/08/08 02:44:54;;;;;;;13.82;5.05;;;;;;;22.35;44.71;100018.25;5110582;28;20035;-22
2021/08/08 02:47:20;;;;;;;16.33;5.78;;;;;;;21.60;45.38;100026.19;5110299;28;20035;-22
2021/08/08 02:49:45;;;;;;;11.68;4.90;;;;;;;21.95;45.74;100023.25;5110248;28;20031;-22
2021/08/08 02:52:11;;;;;;;37.17;12.60;;;;;;;21.96;45.22;100025.63;5110162;28;20461;-22
2021/08/08 02:54:38;;;;;;;41.38;15.75;;;;;;;22.15;44.73;100024.78;5110304;28;20047;-22
2021/08/08 02:57:03;;;;;;;41.35;16.17;;;;;;;22.17;44.49;100020.69;5109993;28;20043;-22
2021/08/08 02:59:29;;;;;;;18.52;8.43;;;;;;;22.70;43.69;100024.97;5110182;28;20070;-22
2021/08/08 03:01:55;;;;;;;13.80;6.65;;;;;;;22.46;44.16;100028.63;5110314;28;20372;-22
2021/08/08 03:04:21;;;;;;;12.32;5.03;;;;;;;22.02;45.09;100029.88;5109650;28;20034;-22
2021/08/08 03:06:46;;;;;;;12.82;5.10;;;;;;;21.84;45.72;100025.28;5109994;28;20036;-22
2021/08/08 03:09:12;;;;;;;11.35;5.68;;;;;;;22.14;44.45;100009.63;5110006;28;20549;-22
2021/08/08 03:11:45;;;;;;;12.02;5.15;;;;;;;22.05;44.05;100034.72;5109993;28;20046;-22
2021/08/08 03:14:11;;;;;;;14.27;5.78;;;;;;;21.66;45.78;100025.00;5109783;28;20038;-22
2021/08/08 03:16:36;;;;;;;14.85;5.30;;;;;;;22.13;45.09;100048.72;5109822;28;20031;-22
2021/08/08 03:19:02;;;;;;;10.23;4.30;;;;;;;21.87;45.05;100046.44;5109646;28;20106;-22
2021/08/08 03:21:28;;;;;;;9.48;4.03;;;;;;;22.10;44.53;100049.34;5109432;28;20485;-22
2021/08/08 03:23:53;;;;;;;9.48;4.40;;;;;;;21.93;44.88;100045.25;5109682;28;20031;-23
2021/08/08 03:26:19;;;;;;;9.50;4.30;;;;;;;22.22;44.58;100039.63;5109661;28;20054;-22
2021/08/08 03:28:44;;;;;;;10.98;4.18;;;;;;;22.14;44.24;100045.72;5109682;28;20035;-22
2021/08/08 03:31:10;;;;;;;11.40;4.22;;;;;;;20.95;46.49;100055.75;5109527;28;20027;-22
2021/08/08 03:33:36;;;;;;;12.07;4.00;;;;;;;21.12;47.59;100058.78;5109859;28;20036;-22
2021/08/08 03:36:01;;;;;;;13.70;4.97;;;;;;;20.44;47.90;100065.94;5109365;28;20028;-22
2021/08/08 03:38:27;;;;;;;11.45;4.40;;;;;;;19.31;50.96;100060.44;5109503;28;20032;-22
2021/08/08 03:40:52;;;;;;;13.73;5.15;;;;;;;19.26;51.99;100065.88;5109138;28;20388;-22
2021/08/08 03:43:18;;;;;;;14.57;4.18;;;;;;;20.03;50.54;100071.69;5109166;28;20032;-22
2021/08/08 03:45:43;;;;;;;12.35;4.82;;;;;;;20.82;48.43;100071.59;5109051;28;20039;-22
2021/08/08 03:48:09;;;;;;;23.08;6.38;;;;;;;20.80;48.41;100073.78;5109179;28;20031;-22
2021/08/08 03:50:34;;;;;;;33.15;7.15;;;;;;;21.48;46.86;100065.72;5109306;28;21230;-22
2021/08/08 03:53:00;;;;;;;22.35;7.50;;;;;;;21.93;45.45;100077.81;5109057;28;20035;-22
2021/08/08 03:55:25;;;;;;;21.73;7.82;;;;;;;22.25;45.01;100084.41;5108969;28;20096;-22
2021/08/08 03:57:53;;;;;;;19.40;7.45;;;;;;;22.37;44.43;100090.22;5108672;28;20051;-22
2021/08/08 04:00:19;;;;;;;14.18;5.10;;;;;;;22.01;45.02;100092.66;5108720;28;20032;-22
2021/08/08 04:02:44;;;;;;;10.65;4.70;;;;;;;21.72;45.89;100082.75;5108853;28;20043;-22
2021/08/08 04:05:10;;;;;;;18.50;5.05;;;;;;;21.62;46.89;100094.53;5090781;28;20475;-23
2021/08/08 04:07:35;;;;;;;13.43;4.93;;;;;;;21.24;47.35;100070.03;5108952;28;20028;-22
2021/08/08 04:10:01;;;;;;;12.43;5.13;;;;;;;22.01;45.83;100101.59;5108451;28;20024;-22
2021/08/08 04:12:27;;;;;;;14.02;4.60;;;;;;;22.26;45.18;100105.06;5108635;28;20024;-22
2021/08/08 04:14:52;;;;;;;10.05;4.07;;;;;;;22.14;45.47;100100.03;5108699;28;20410;-22
2021/08/08 04:17:18;;;;;;;8.55;4.07;;;;;;;21.90;45.98;100105.56;5108595;28;20048;-23
2021/08/08 04:19:43;;;;;;;8.20;4.03;;;;;;;22.14;45.36;100104.69;5108318;28;20015;-22
2021/08/08 04:22:08;;;;;;;9.57;3.83;;;;;;;22.46;44.64;100120.22;5108446;28;20804;-22
2021/08/08 04:24:34;;;;;;;8.75;3.72;;;;;;;22.33;45.24;100121.81;5108767;28;20023;-22
2021/08/08 04:26:59;;;;;;;6.65;3.83;;;;;;;22.23;45.61;100119.19;5108514;28;20035;-22
2021/08/08 04:29:25;;;;;;;9.20;4.00;;;;;;;22.39;44.72;100107.03;5108482;28;20726;-23
2021/08/08 04:31:50;;;;;;;13.63;3.88;;;;;;;22.15;45.66;100134.25;5108312;28;20031;-22
2021/08/08 04:34:16;;;;;;;15.18;4.15;;;;;;;22.04;46.13;100117.28;5108098;28;20039;-22
2021/08/08 04:36:42;;;;;;;14.65;5.40;;;;;;;22.15;45.92;100133.44;5108256;28;20054;-22
2021/08/08 04:39:07;;;;;;;13.40;5.57;;;;;;;22.16;45.83;100129.63;5108178;28;20039;-22
2021/08/08 04:41:33;;;;;;;10.13;4.50;;;;;;;22.52;44.96;100123.69;5108087;28;20034;-22
2021/08/08 04:43:58;;;;;;;10.02;4.50;;;;;;;22.77;44.62;100136.81;5108301;28;20039;-22
2021/08/08 04:46:24;;;;;;;9.35;4.60;;;;;;;22.74;44.82;100129.28;5107892;28;20046;-22
2021/08/08 04:48:49;;;;;;;11.00;4.60;;;;;;;22.98;44.27;100147.34;5108157;28;20388;-22
2021/08/08 04:51:15;;;;;;;12.18;5.13;;;;;;;21.33;47.78;100140.75;5107985;28;20035;-22
2021/08/08 04:53:40;;;;;;;9.32;4.57;;;;;;;21.24;48.73;100145.97;5108272;28;20398;-22
2021/08/08 04:56:06;;;;;;;11.50;4.93;;;;;;;21.89;47.34;100143.88;5107590;28;20044;-22
2021/08/08 04:58:31;;;;;;;8.80;4.40;;;;;;;22.31;46.51;100150.34;5107300;28;20088;-22
2021/08/08 05:00:56;;;;;;;7.25;4.20;;;;;;;22.66;45.87;100151.72;5108048;28;20403;-22
2021/08/08 05:03:22;;;;;;;8.02;3.83;;;;;;;23.08;44.58;100149.91;5107920;28;20028;-22
2021/08/08 05:05:47;;;;;;;8.40;4.45;;;;;;;23.29;44.40;100154.94;5107790;28;20089;-22
2021/08/08 05:08:13;;;;;;;9.95;4.57;;;;;;;22.48;45.62;100157.97;5107559;28;20036;-22
2021/08/08 05:10:39;;;;;;;8.50;4.40;;;;;;;22.41;46.90;100151.00;5107710;28;20032;-22
2021/08/08 05:13:04;;;;;;;8.55;4.43;;;;;;;22.61;45.94;100158.00;5107712;28;20506;-23
2021/08/08 05:15:30;;;;;;;20.52;5.07;;;;;;;22.92;46.00;100164.84;5089509;28;20498;-23
2021/08/08 05:17:55;;;;;;;8.68;4.28;;;;;;;23.07;45.16;100164.63;5107562;28;20039;-22
2021/08/08 05:20:21;;;;;;;9.82;3.90;;;;;;;23.09;45.34;100165.13;5107240;28;20031;-22
2021/08/08 05:22:46;;;;;;;14.15;4.35;;;;;;;23.30;44.85;100162.03;5107678;28;20592;-22
2021/08/08 05:25:12;;;;;;;8.70;3.80;;;;;;;23.44;44.38;100168.28;5107413;28;20031;-22
2021/08/08 05:27:37;;;;;;;7.63;4.30;;;;;;;23.15;44.58;100161.19;5107458;28;20044;-22
2021/08/08 05:30:04;;;;;;;41.25;6.20;;;;;;;23.40;44.17;100162.63;5107235;28;20027;-22
2021/08/08 05:32:30;;;;;;;6.72;3.75;;;;;;;23.41;44.54;100163.41;5107621;28;20028;-22
2021/08/08 05:34:55;;;;;;;8.20;3.53;;;;;;;23.40;44.24;100164.53;5107773;28;20088;-22
2021/08/08 05:37:22;;;;;;;6.85;3.58;;;;;;;23.51;43.72;100146.88;5107842;28;20032;-22
2021/08/08 05:39:47;;;;;;;13.45;4.25;;;;;;;23.71;43.20;100163.91;5107449;28;20759;-22
2021/08/08 05:42:13;;;;;;;9.07;4.95;;;;;;;23.84;42.88;100158.50;5107209;28;20475;-22
2021/08/08 05:44:38;;;;;;;6.97;4.18;;;;;;;23.69;44.23;100168.88;5089215;28;20034;-22
2021/08/08 05:47:07;;;;;;;8.98;4.35;;;;;;;23.74;43.45;100157.84;5107359;28;20035;-23
2021/08/08 05:49:33;;;;;;;11.52;5.40;;;;;;;23.71;43.53;100161.19;5107225;28;20031;-22
2021/08/08 05:52:01;;;;;;;8.70;5.57;;;;;;;23.88;43.19;100164.09;5107269;28;20039;-22
2021/08/08 05:54:26;;;;;;;8.35;4.50;;;;;;;23.74;43.66;100166.03;5089279;28;20104;-23
2021/08/08 05:56:52;;;;;;;8.32;5.07;;;;;;;23.69;43.65;100164.22;5106969;28;20060;-22
2021/08/08 05:59:17;;;;;;;8.05;4.70;;;;;;;24.17;42.98;100168.38;5107363;28;20031;-23
2021/08/08 06:01:43;;;;;;;6.88;3.75;;;;;;;23.72;42.13;100163.63;5106936;28;20035;-22
2021/08/08 06:04:08;;;;;;;8.85;4.75;;;;;;;24.43;41.69;100165.88;5107004;28;20023;-22
2021/08/08 06:06:34;;;;;;;17.40;6.80;;;;;;;24.70;41.55;100164.94;5107194;28;20371;-23
2021/08/08 06:08:59;;;;;;;8.38;4.68;;;;;;;24.86;42.12;100163.44;5108619;28;20035;-22
2021/08/08 06:11:24;;;;;;;7.20;3.33;;;;;;;24.84;41.27;100160.22;5110964;28;20104;-22
2021/08/08 06:13:50;;;;;;;28.33;21.55;;;;;;;25.12;39.84;100160.06;5110949;28;20038;-22
2021/08/08 06:16:16;;;;;;;6.32;3.80;;;;;;;25.58;39.40;100167.03;5110810;28;20566;-22
2021/08/08 06:18:41;;;;;;;10.07;3.70;;;;;;;25.35;39.79;100163.53;5110958;28;20050;-22
2021/08/08 06:21:06;;;;;;;6.93;3.28;;;;;;;25.04;40.29;100139.78;5092805;28;20040;-22
2021/08/08 06:23:32;;;;;;;5.15;2.58;;;;;;;25.05;40.55;100155.06;5111042;28;20542;-22
2021/08/08 06:25:58;;;;;;;8.48;3.78;;;;;;;25.41;39.64;100164.22;5111120;28;20043;-22
2021/08/08 06:28:23;;;;;;;4.45;2.80;;;;;;;25.63;38.42;100161.38;5110685;28;20040;-22
2021/08/08 06:30:49;;;;;;;5.32;2.97;;;;;;;26.00;39.05;100161.16;5110656;28;20027;-23
2021/08/08 06:33:16;;;;;;;2.95;2.45;;;;;;;26.05;38.49;100159.09;5110619;28;20027;-22
2021/08/08 06:35:42;;;;;;;4.70;2.60;;;;;;;26.14;37.63;100150.88;5110564;28;20039;-22
2021/08/08 06:38:07;;;;;;;7.25;3.00;;;;;;;26.21;36.93;100166.78;5110226;28;20043;-22
2021/08/08 06:40:33;;;;;;;4.57;2.55;;;;;;;26.05;38.13;100159.09;5110539;28;20512;-22
2021/08/08 06:43:00;;;;;;;7.88;2.75;;;;;;;25.82;37.12;100154.84;5110483;28;20106;-23
2021/08/08 06:45:25;;;;;;;6.28;2.67;;;;;;;26.14;36.99;100155.56;5110340;28;20157;-22
2021/08/08 06:47:51;;;;;;;6.93;2.75;;;;;;;26.42;36.48;100156.84;5110447;28;20039;-22
2021/08/08 06:50:16;;;;;;;4.20;2.45;;;;;;;26.48;36.54;100162.13;5110099;28;20028;-29
2021/08/08 06:52:42;;;;;;;6.55;2.60;;;;;;;26.73;37.04;100155.84;5110255;28;20517;-22
2021/08/08 06:55:08;;;;;;;4.93;2.60;;;;;;;26.93;35.95;100159.81;5110132;28;20036;-24
2021/08/08 06:57:33;;;;;;;6.53;2.78;;;;;;;27.17;35.11;100164.72;5109775;28;20052;-24
2021/08/08 06:59:59;;;;;;;7.65;3.35;;;;;;;26.84;36.75;100157.09;5092266;28;20105;-23
2021/08/08 07:02:24;;;;;;;6.30;3.10;;;;;;;26.97;36.72;100170.91;5110367;28;20043;-23
2021/08/08 07:04:50;;;;;;;9.02;3.10;;;;;;;26.90;35.29;100171.41;5092136;28;20032;-23
2021/08/08 07:07:15;;;;;;;7.85;2.60;;;;;;;26.97;35.97;100176.38;5110071;28;20043;-23
2021/08/08 07:09:41;;;;;;;6.97;2.85;;;;;;;26.86;37.82;100143.88;5091556;28;20027;-23
2021/08/08 07:12:07;;;;;;;4.13;2.70;;;;;;;27.52;34.57;100170.06;5109173;28;20129;-23
2021/08/08 07:14:34;;;;;;;6.13;2.40;;;;;;;26.94;33.72;100160.63;5091819;28;20024;-23
2021/08/08 07:17:00;;;;;;;10.70;2.58;;;;;;;26.87;34.16;100150.19;5109780;28;20027;-23
2021/08/08 07:19:25;;;;;;;6.65;2.42;;;;;;;26.89;34.82;100152.56;5109202;28;20124;-23
2021/08/08 07:21:54;;;;;;;3.65;2.35;;;;;;;27.31;34.29;100170.00;5109230;28;20066;-23
2021/08/08 07:24:20;;;;;;;6.15;2.72;;;;;;;27.58;33.08;100171.50;5109243;28;20502;-23
2021/08/08 07:26:46;;;;;;;5.30;2.63;;;;;;;27.71;33.28;100149.66;5091425;28;20487;-23
2021/08/08 07:29:11;;;;;;;7.55;2.80;;;;;;;27.55;33.18;100163.13;5109529;28;20024;-22
2021/08/08 07:31:37;;;;;;;6.50;2.85;;;;;;;27.67;32.70;100162.44;5109529;28;20036;-23
2021/08/08 07:34:02;;;;;;;6.70;2.83;;;;;;;27.87;32.84;100171.81;5109304;28;20407;-22
2021/08/08 07:36:28;;;;;;;6.07;3.10;;;;;;;27.85;32.78;100169.41;5109405;28;20035;-23
2021/08/08 07:38:53;;;;;;;4.70;2.22;;;;;;;27.80;32.33;100164.09;5109418;28;20407;-23
2021/08/08 07:41:18;;;;;;;4.80;2.60;;;;;;;27.99;32.95;100160.94;5109295;28;20031;-22
2021/08/08 07:43:44;;;;;;;10.38;2.65;;;;;;;28.07;33.29;100157.31;5109810;28;20039;-23
2021/08/08 07:46:10;;;;;;;5.50;2.35;;;;;;;28.16;31.42;100149.06;5091041;28;20716;-22
2021/08/08 07:48:35;;;;;;;5.85;2.40;;;;;;;28.53;31.97;100151.97;5109394;28;20749;-23
2021/08/08 07:51:01;;;;;;;4.22;2.13;;;;;;;28.86;31.61;100154.69;5109277;28;20032;-23
2021/08/08 07:53:26;;;;;;;5.32;2.50;;;;;;;28.62;31.79;100150.72;5109023;28;20410;-23
2021/08/08 07:55:55;;;;;;;5.32;2.50;;;;;;;28.46;31.27;100146.97;5108916;28;20199;-23
2021/08/08 07:58:21;;;;;;;3.72;2.47;;;;;;;28.65;31.47;100146.53;5108414;28;20052;-22
2021/08/08 08:00:46;;;;;;;4.72;2.50;;;;;;;29.08;31.04;100155.41;5108838;28;20034;-22
2021/08/08 08:03:12;;;;;;;5.30;2.30;;;;;;;29.16;31.20;100158.06;5109091;28;20027;-23
2021/08/08 08:05:37;;;;;;;6.57;2.60;;;;;;;29.58;30.37;100162.53;5109099;28;20032;-23
2021/08/08 08:08:03;;;;;;;6.22;2.28;;;;;;;29.82;29.17;100153.47;5108487;28;20032;-23
2021/08/08 08:10:30;;;;;;;4.07;2.40;;;;;;;29.73;29.44;100147.31;5090578;28;20059;-23
2021/08/08 08:12:55;;;;;;;3.65;2.17;;;;;;;29.68;29.36;100140.06;5108622;28;20429;-22
2021/08/08 08:15:21;;;;;;;3.25;2.20;;;;;;;30.21;30.05;100149.13;5108561;28;20470;-23
2021/08/08 08:17:49;;;;;;;4.28;2.10;;;;;;;30.01;30.26;100150.91;5108885;28;20079;-23
2021/08/08 08:20:14;;;;;;;4.03;2.25;;;;;;;29.96;29.90;100151.16;5108333;28;20027;-22
2021/08/08 08:22:40;;;;;;;4.38;2.17;;;;;;;29.99;28.72;100127.66;5090688;28;20042;-23
2021/08/08 08:25:06;;;;;;;5.60;2.25;;;;;;;30.11;28.61;100138.63;5108497;28;20038;-22
2021/08/08 08:27:32;;;;;;;3.78;2.20;;;;;;;30.26;29.80;100139.84;5108331;28;20024;-22
2021/08/08 08:29:57;;;;;;;5.47;2.35;;;;;;;30.35;29.05;100151.50;5108202;28;20034;-23
2021/08/08 08:32:23;;;;;;;3.45;2.25;;;;;;;30.39;29.21;100152.41;5108197;28;20039;-23
2021/08/08 08:34:48;;;;;;;8.75;2.45;;;;;;;30.25;29.43;100152.78;5108378;28;20096;-23
2021/08/08 08:37:14;;;;;;;5.95;2.00;;;;;;;30.63;27.50;100136.94;5108376;28;20035;-22
2021/08/08 08:39:39;;;;;;;6.97;2.33;;;;;;;31.19;28.88;100145.06;5108066;28;20495;-23
2021/08/08 08:42:05;;;;;;;7.88;3.00;;;;;;;31.06;28.14;100135.31;5108061;28;20028;-23
2021/08/08 08:44:30;;;;;;;6.32;2.60;;;;;;;31.14;30.31;100137.09;5108121;28;20023;-22
2021/08/08 08:46:56;;;;;;;3.22;2.10;;;;;;;30.96;28.27;100141.34;5073196;28;20035;-22
2021/08/08 08:49:21;;;;;;;4.38;2.00;;;;;;;30.86;27.95;100130.84;5108012;28;20036;-22
2021/08/08 08:51:52;;;;;;;4.03;1.90;;;;;;;30.68;27.51;100131.16;5072924;28;20119;-22
2021/08/08 08:54:18;;;;;;;5.88;2.00;;;;;;;30.87;28.85;100126.91;5090491;28;20063;-22
2021/08/08 08:56:44;;;;;;;3.45;2.03;;;;;;;31.03;27.23;100147.03;5089349;28;20094;-23
2021/08/08 08:59:09;;;;;;;29.20;9.30;;;;;;;31.67;29.33;100144.22;5107923;28;20039;-22
2021/08/08 09:01:36;;;;;;;3.05;1.95;;;;;;;31.32;27.95;100143.00;5089714;28;20198;-22
2021/08/08 09:04:02;;;;;;;2.28;1.80;;;;;;;31.23;27.71;100117.59;5107392;28;20023;-22
2021/08/08 09:06:28;;;;;;;3.63;1.93;;;;;;;31.20;27.29;100141.16;5107957;28;20031;-22
2021/08/08 09:08:54;;;;;;;4.10;2.13;;;;;;;31.39;26.62;100112.06;5089687;28;20115;-22
2021/08/08 09:11:19;;;;;;;6.53;1.90;;;;;;;31.80;25.42;100118.91;5107658;28;20058;-23
2021/08/08 09:13:56;;;;;;;3.53;1.90;;;;;;;32.05;26.04;100112.34;5072711;28;20035;-22
2021/08/08 09:16:25;;;;;;;3.17;2.22;;;;;;;32.11;25.71;100111.69;5107605;28;20074;-22
2021/08/08 09:18:51;;;;;;;4.53;2.30;;;;;;;31.83;26.45;100114.63;5107851;28;20035;-22
2021/08/08 09:21:17;;;;;;;4.30;2.03;;;;;;;31.89;27.02;100112.38;5107419;28;20487;-22
2021/08/08 09:23:43;;;;;;;2.92;1.95;;;;;;;31.76;27.60;100114.50;5107459;28;20311;-23
2021/08/08 09:26:08;;;;;;;4.05;2.08;;;;;;;31.95;27.73;100106.22;5107344;28;20487;-22
2021/08/08 09:28:34;;;;;;;3.47;1.77;;;;;;;32.15;26.05;100089.69;5089597;28;20027;-23
2021/08/08 09:30:59;;;;;;;3.45;2.00;;;;;;;31.97;26.77;100112.16;5107505;28;20024;-22
2021/08/08 09:33:25;;;;;;;2.75;2.08;;;;;;;31.85;26.68;100112.31;5107473;28;20030;-22
2021/08/08 09:35:52;;;;;;;3.35;1.80;;;;;;;31.99;25.83;100112.63;5107538;28;20035;-22
2021/08/08 09:38:18;;;;;;;3.05;1.92;;;;;;;31.93;25.83;100105.78;5072440;28;20532;-23
2021/08/08 09:40:54;;;;;;;4.15;1.80;;;;;;;32.11;26.43;100097.91;5107113;28;20032;-23
2021/08/08 09:43:24;;;;;;;5.47;2.33;;;;;;;32.40;24.48;100085.44;5090543;28;20502;-22
2021/08/08 09:45:49;;;;;;;5.03;2.20;;;;;;;32.80;26.30;100099.97;5111712;28;20028;-22
2021/08/08 09:48:15;;;;;;;3.22;1.80;;;;;;;32.99;23.92;100099.09;5093262;28;20508;-23
2021/08/08 09:50:41;;;;;;;5.15;1.80;;;;;;;33.44;23.45;100094.66;5111432;28;20050;-22
2021/08/08 09:53:08;;;;;;;3.60;2.03;;;;;;;33.77;24.19;100099.47;5111242;28;20089;-22
2021/08/08 09:55:35;;;;;;;;;;;;;;;33.43;24.36;100091.09;5111733;28;20050;-23
2021/08/08 09:58:02;;;;;;;2.50;1.88;;;;;;;33.30;24.38;100080.63;5111032;28;19972;-22
2021/08/08 10:00:30;;;;;;;3.28;1.77;;;;;;;33.92;24.02;100083.88;5110960;28;20048;-22
2021/08/08 10:02:55;;;;;;;5.50;2.17;;;;;;;33.72;24.27;100086.00;5111131;28;20115;-22
2021/08/08 10:05:21;;;;;;;5.07;2.05;;;;;;;33.29;24.55;100090.13;5108289;28;20038;-22
2021/08/08 10:07:47;;;;;;;3.53;1.85;;;;;;;33.91;23.73;100085.03;5101258;28;20027;-23
2021/08/08 10:10:13;;;;;;;10.45;6.43;;;;;;;34.10;22.85;100066.66;5099711;28;20024;-23
2021/08/08 10:12:44;;;;;;;4.85;2.05;;;;;;;34.46;21.90;100072.59;5102247;28;20038;-23
2021/08/08 10:15:10;;;;;;;3.42;1.90;;;;;;;34.33;23.64;100070.09;5110798;28;20031;-23
2021/08/08 10:17:37;;;;;;;3.60;1.60;;;;;;;34.36;22.32;100072.09;5092427;28;20066;-23
2021/08/08 10:20:03;;;;;;;3.40;1.80;;;;;;;34.88;22.27;100060.31;5110697;28;20464;-23
2021/08/08 10:22:28;;;;;;;6.30;2.10;;;;;;;34.73;22.98;100060.19;5110741;28;20047;-22
2021/08/08 10:24:56;;;;;;;2.70;1.75;;;;;;;34.88;22.43;100072.19;5075564;28;20027;-23
2021/08/08 10:27:22;;;;;;;2.63;1.80;;;;;;;34.55;23.46;100065.56;5110530;28;20507;-23
2021/08/08 10:29:48;;;;;;;3.13;1.73;;;;;;;34.85;21.70;100066.63;5092423;28;20031;-23
2021/08/08 10:32:14;;;;;;;2.65;1.60;;;;;;;34.31;23.33;100055.84;5092306;28;20448;-22
2021/08/08 10:34:39;;;;;;;3.42;2.08;;;;;;;34.47;22.63;100052.84;5092465;28;20035;-22
2021/08/08 10:37:10;;;;;;;3.03;1.70;;;;;;;34.34;22.74;100055.06;5110545;28;20023;-22
2021/08/08 10:39:43;;;;;;;4.15;1.88;;;;;;;33.90;23.00;100039.19;5110577;28;20027;-22
2021/08/08 10:42:08;;;;;;;5.25;1.67;;;;;;;34.23;23.63;100059.72;5110334;28;20108;-22
2021/08/08 10:44:53;;;;;;;3.78;1.80;;;;;;;34.68;23.12;100057.78;5092618;28;20076;-22
2021/08/08 10:47:29;;;;;;;4.10;2.00;;;;;;;35.63;21.71;100057.22;5110256;28;20487;-22
2021/08/08 10:49:55;;;;;;;2.72;1.92;;;;;;;35.69;20.57;100041.81;5110551;28;20074;-22
2021/08/08 10:52:20;;;;;;;3.35;1.90;;;;;;;35.94;20.49;100042.72;5091892;28;20023;-22
2021/08/08 10:54:47;;;;;;;3.88;2.25;;;;;;;36.40;20.09;100038.44;5109213;28;20032;-23
2021/08/08 10:57:14;;;;;;;3.03;1.65;;;;;;;36.35;19.25;100034.06;5109902;28;20055;-22
2021/08/08 10:59:54;;;;;;;2.45;1.70;;;;;;;35.57;19.65;100046.50;5109800;28;20498;-22
2021/08/08 11:02:27;;;;;;;2.83;2.00;;;;;;;35.18;20.93;100035.19;5109888;28;20122;-22
2021/08/08 11:04:52;;;;;;;3.88;2.00;;;;;;;35.64;20.66;100036.63;5075095;28;20089;-22
2021/08/08 11:07:24;;;;;;;4.28;1.95;;;;;;;35.84;19.59;100037.09;5110167;28;20031;-22
2021/08/08 11:09:50;;;;;;;2.53;1.70;;;;;;;36.51;19.89;100041.22;5110529;28;20027;-22
2021/08/08 11:12:18;;;;;;;2.00;1.80;;;;;;;36.80;19.82;100033.72;5109464;28;20039;-22
2021/08/08 11:14:50;;;;;;;4.10;1.80;;;;;;;36.79;18.18;100029.34;5109933;28;20683;-22
2021/08/08 11:17:15;;;;;;;3.97;1.52;;;;;;;36.85;20.13;100026.94;5109793;28;20076;-22
2021/08/08 11:19:41;;;;;;;2.53;1.70;;;;;;;36.60;20.20;100016.63;5110150;28;20084;-22